Time;durP1;ratioP1;P1;durP2;ratioP2;P2;SDS_P1;SDS_P2;PMS_P1;PMS_P2;Temp;Humidity;BMP_temperature;BMP_pressure;BME280_temperature;BME280_humidity;BME280_pressure;Samples;Min_cycle;Max_cycle;Signal;HPM_P1;HPM_P2
2021/08/01 00:00:50;;;;;;;17.67;6.70;;;;;;;13.83;100.00;96425.59;5039543;28;20492;-68
2021/08/01 00:03:16;;;;;;;20.17;6.53;;;;;;;13.79;100.00;96419.75;5036574;28;20595;-68
2021/08/01 00:05:45;;;;;;;22.77;6.90;;;;;;;13.76;100.00;96077.91;5040008;28;20075;-68
2021/08/01 00:08:11;;;;;;;20.63;6.90;;;;;;;13.72;100.00;96071.28;5039925;28;20029;-68
2021/08/01 00:10:37;;;;;;;17.67;6.07;;;;;;;13.74;100.00;96074.59;5040393;28;20021;-68
2021/08/01 00:13:03;;;;;;;15.90;7.20;;;;;;;13.73;100.00;96073.75;5039940;28;20185;-68
2021/08/01 00:15:28;;;;;;;16.53;6.00;;;;;;;13.74;100.00;96411.44;5039588;28;20489;-68
2021/08/01 00:17:54;;;;;;;19.43;6.70;;;;;;;13.73;100.00;96408.94;5039383;28;20358;-68
2021/08/01 00:20:20;;;;;;;22.70;6.87;;;;;;;13.68;100.00;96400.56;5039926;28;20114;-68
2021/08/01 00:22:46;;;;;;;20.73;6.30;;;;;;;13.64;100.00;96057.97;5039577;28;20032;-68
2021/08/01 00:25:15;;;;;;;22.00;7.23;;;;;;;13.56;100.00;96044.66;5040415;28;20025;-68
2021/08/01 00:27:41;;;;;;;23.53;7.50;;;;;;;13.46;100.00;96028.91;5039345;28;20205;-68
2021/08/01 00:30:11;;;;;;;21.73;7.00;;;;;;;13.48;100.00;96704.78;5040119;28;20399;-68
2021/08/01 00:32:38;;;;;;;20.80;6.83;;;;;;;13.45;100.00;97035.69;5044558;28;20029;-68
2021/08/01 00:35:06;;;;;;;25.63;7.00;;;;;;;13.46;100.00;97372.47;5040007;28;20112;-68
2021/08/01 00:37:31;;;;;;;20.17;6.93;;;;;;;13.45;100.00;97371.63;5039514;28;20039;-68
2021/08/01 00:39:57;;;;;;;24.77;7.40;;;;;;;13.44;100.00;97369.91;5040021;28;20021;-68
2021/08/01 00:42:22;;;;;;;22.03;7.57;;;;;;;13.42;100.00;97365.69;5039113;28;20505;-68
2021/08/01 00:44:48;;;;;;;24.43;7.40;;;;;;;13.40;100.00;97027.28;5039932;28;20771;-68
2021/08/01 00:47:13;;;;;;;25.33;7.57;;;;;;;13.36;100.00;96684.72;5039552;28;20056;-68
2021/08/01 00:49:39;;;;;;;26.17;8.13;;;;;;;13.33;100.00;96679.69;5038715;28;20032;-68
2021/08/01 00:52:05;;;;;;;21.90;7.10;;;;;;;13.30;100.00;96338.88;5039810;28;20044;-68
2021/08/01 00:54:32;;;;;;;27.33;7.93;;;;;;;13.34;100.00;96344.72;5039725;28;20033;-68
2021/08/01 00:56:57;;;;;;;22.77;7.83;;;;;;;13.30;100.00;96003.13;5039919;28;20049;-68
2021/08/01 00:59:23;;;;;;;27.77;7.90;;;;;;;13.27;100.00;95997.31;5041151;28;20658;-68
2021/08/01 01:02:00;;;;;;;24.33;7.70;;;;;;;13.28;100.00;95998.97;5043570;28;20512;-71
2021/08/01 01:04:37;;;;;;;22.17;7.43;;;;;;;13.25;100.00;95994.81;5042552;28;20277;-72
2021/08/01 01:07:20;;;;;;;24.13;7.47;;;;;;;13.21;100.00;95988.19;5043474;28;20039;-72
2021/08/01 01:10:34;;;;;;;26.23;8.40;;;;;;;13.24;100.00;96328.88;5033493;28;20432;-72
2021/08/01 01:13:10;;;;;;;25.40;7.30;;;;;;;13.21;100.00;95988.19;5031696;28;20481;-72
2021/08/01 01:15:42;;;;;;;28.43;7.77;;;;;;;13.20;100.00;95986.50;5043843;28;20311;-72
2021/08/01 01:18:09;;;;;;;31.30;8.05;;;;;;;13.21;100.00;95651.69;5043520;28;20513;-72
2021/08/01 01:21:13;;;;;;;23.70;7.60;;;;;;;13.21;100.00;95652.53;5043120;28;20490;-72
2021/08/01 01:23:44;;;;;;;29.43;8.00;;;;;;;13.18;100.00;95311.88;4960960;28;20229;-72
2021/08/01 01:27:05;;;;;;;27.90;7.37;;;;;;;13.22;100.00;95989.03;4961370;28;20395;-72
2021/08/01 01:29:57;;;;;;;32.33;8.93;;;;;;;13.25;100.00;95994.81;4952261;28;20252;-72
2021/08/01 01:32:46;;;;;;;28.40;8.25;;;;;;;13.21;100.00;95988.19;4961057;28;20345;-72
2021/08/01 01:35:19;;;;;;;32.20;8.40;;;;;;;13.18;100.00;95983.16;4960903;28;20605;-72
2021/08/01 01:37:47;;;;;;;24.93;8.27;;;;;;;13.19;100.00;96320.53;4960862;28;20142;-72
2021/08/01 01:40:17;;;;;;;26.83;8.20;;;;;;;13.20;100.00;96322.19;4960655;28;20046;-72
2021/08/01 01:42:43;;;;;;;31.47;8.97;;;;;;;13.15;100.00;95979.00;4960582;28;20164;-72
2021/08/01 01:45:10;;;;;;;35.90;9.20;;;;;;;13.12;100.00;95974.03;4960961;28;20305;-72
2021/08/01 01:47:36;;;;;;;35.93;8.53;;;;;;;13.10;100.00;95969.88;4960377;28;20070;-72
2021/08/01 01:50:03;;;;;;;30.63;8.30;;;;;;;13.12;100.00;95973.19;4960077;28;20035;-72
2021/08/01 01:52:30;;;;;;;27.73;8.17;;;;;;;13.18;100.00;96318.84;4960475;28;20041;-72
2021/08/01 01:54:57;;;;;;;32.30;8.60;;;;;;;13.17;100.00;96317.16;4960331;28;20027;-72
2021/08/01 01:57:22;;;;;;;30.97;9.13;;;;;;;13.16;100.00;96315.50;4960719;28;20038;-72
2021/08/01 01:59:48;;;;;;;38.43;9.23;;;;;;;13.13;100.00;96310.50;5031795;28;20033;-72
2021/08/01 02:02:14;;;;;;;32.57;8.40;;;;;;;13.14;100.00;96647.88;5041818;28;20477;-72
2021/08/01 02:04:40;;;;;;;32.37;8.50;;;;;;;13.10;100.00;96641.19;5041486;28;20075;-72
2021/08/01 02:07:06;;;;;;;32.63;8.73;;;;;;;13.09;100.00;95632.63;5042048;28;20260;-72
2021/08/01 02:09:50;;;;;;;37.60;8.87;;;;;;;13.06;100.00;94956.56;5040603;28;20028;-72
2021/08/01 02:12:28;;;;;;;32.80;8.83;;;;;;;13.05;100.00;94619.44;5037034;28;20025;-72
2021/08/01 02:15:15;;;;;;;38.70;9.30;;;;;;;13.05;100.00;94619.44;5041872;28;20317;-72
2021/08/01 02:17:49;;;;;;;32.20;8.90;;;;;;;13.07;100.00;94622.72;5030376;28;20538;-72
2021/08/01 02:20:20;;;;;;;33.73;8.90;;;;;;;13.07;100.00;94958.19;5041443;28;20204;-72
2021/08/01 02:22:47;;;;;;;38.70;10.25;;;;;;;13.09;100.00;94626.00;5041067;28;20463;-72
2021/08/01 02:25:16;;;;;;;31.63;9.43;;;;;;;13.11;100.00;94293.78;5041900;28;20036;-72
2021/08/01 02:27:42;;;;;;;29.20;8.80;;;;;;;13.13;100.00;93962.41;5041437;28;20025;-72
2021/08/01 02:30:09;;;;;;;35.47;9.60;;;;;;;13.10;100.00;93622.13;5041851;28;20032;-72
2021/08/01 02:32:35;;;;;;;32.97;9.60;;;;;;;13.10;100.00;93622.13;5041051;28;20024;-72
2021/08/01 02:35:03;;;;;;;31.47;8.53;;;;;;;13.09;100.00;93620.50;5041760;28;20122;-72
2021/08/01 02:37:29;;;;;;;38.73;8.67;;;;;;;13.12;100.00;93959.97;5041322;28;20404;-72
2021/08/01 02:39:55;;;;;;;36.20;9.30;;;;;;;13.13;100.00;94297.06;5041107;28;20644;-72
2021/08/01 02:42:23;;;;;;;34.43;9.20;;;;;;;13.13;100.00;93626.16;5041141;28;20064;-72
2021/08/01 02:44:53;;;;;;;32.63;9.40;;;;;;;13.12;100.00;93624.53;5041204;28;20557;-72
2021/08/01 02:47:20;;;;;;;34.20;8.90;;;;;;;13.14;100.00;93627.78;5041711;28;20554;-68
2021/08/01 02:49:46;;;;;;;34.53;9.37;;;;;;;13.12;100.00;93959.97;5044173;28;20037;-68
2021/08/01 02:52:36;;;;;;;37.80;8.80;;;;;;;13.09;100.00;93955.09;5044803;28;20516;-68
2021/08/01 02:55:03;;;;;;;39.13;9.23;;;;;;;13.07;100.00;94287.25;5032800;28;20059;-68
2021/08/01 02:57:31;;;;;;;32.53;9.13;;;;;;;13.02;100.00;94279.09;5043803;28;20024;-68
2021/08/01 03:00:00;;;;;;;39.13;9.40;;;;;;;12.99;100.00;94274.22;5044481;28;20068;-68
2021/08/01 03:02:26;;;;;;;39.23;9.03;;;;;;;12.93;100.00;94264.41;5043996;28;20642;-68
2021/08/01 03:04:52;;;;;;;31.07;8.33;;;;;;;12.94;100.00;94266.03;5044387;28;20053;-68
2021/08/01 03:07:18;;;;;;;36.30;8.97;;;;;;;12.96;100.00;94604.69;5034871;28;20727;-68
2021/08/01 03:09:44;;;;;;;32.63;8.93;;;;;;;12.97;100.00;94607.16;5044333;28;20405;-68
2021/08/01 03:12:11;;;;;;;32.00;9.20;;;;;;;12.93;100.00;94264.41;5043730;28;20077;-68
2021/08/01 03:14:38;;;;;;;39.50;9.93;;;;;;;12.91;100.00;93927.41;5044116;28;20107;-68
2021/08/01 03:17:04;;;;;;;36.80;9.73;;;;;;;12.82;100.00;93576.69;5043945;28;20680;-68
2021/08/01 03:19:31;;;;;;;34.67;9.43;;;;;;;12.80;100.00;93573.47;5043986;28;20067;-68
2021/08/01 03:21:56;;;;;;;38.07;9.53;;;;;;;12.86;100.00;93918.50;5043344;28;20048;-68
2021/08/01 03:24:22;;;;;;;41.13;9.90;;;;;;;12.85;100.00;93917.69;5043099;28;20398;-68
2021/08/01 03:26:47;;;;;;;36.77;9.77;;;;;;;12.87;100.00;93920.13;5044111;28;20051;-68
2021/08/01 03:29:13;;;;;;;42.50;10.27;;;;;;;12.93;100.00;94264.41;5043633;28;20031;-68
2021/08/01 03:31:39;;;;;;;39.47;9.83;;;;;;;12.99;100.00;94274.22;5044056;28;20562;-68
2021/08/01 03:34:05;;;;;;;40.07;10.13;;;;;;;13.03;100.00;94616.16;5043282;28;20029;-68
2021/08/01 03:36:30;;;;;;;35.57;10.07;;;;;;;13.06;100.00;94621.88;5043849;28;20092;-68
2021/08/01 03:38:56;;;;;;;39.80;10.20;;;;;;;13.06;100.00;94621.06;5043541;28;20110;-68
2021/08/01 03:41:21;;;;;;;36.87;9.80;;;;;;;13.04;100.00;94617.81;5043784;28;20751;-68
2021/08/01 03:43:47;;;;;;;31.57;9.17;;;;;;;12.97;100.00;94271.75;5043069;28;20115;-68
2021/08/01 03:46:12;;;;;;;36.57;10.03;;;;;;;12.91;100.00;94261.94;5043608;28;20079;-68
2021/08/01 03:48:38;;;;;;;48.20;10.93;;;;;;;12.87;100.00;94256.25;5043153;28;20060;-68
2021/08/01 03:51:03;;;;;;;38.53;10.30;;;;;;;12.91;100.00;94598.13;5043244;28;20037;-68
2021/08/01 03:53:31;;;;;;;44.20;10.07;;;;;;;12.82;100.00;94583.38;5043199;28;20029;-68
2021/08/01 03:55:57;;;;;;;41.57;10.03;;;;;;;12.85;100.00;94922.88;5042930;28;20428;-69
2021/08/01 03:58:22;;;;;;;41.63;10.40;;;;;;;12.85;100.00;95930.00;5043231;28;20032;-68
2021/08/01 04:00:48;;;;;;;43.37;9.87;;;;;;;12.91;100.00;96275.50;5043141;28;20029;-68
2021/08/01 04:03:14;;;;;;;48.07;11.10;;;;;;;12.90;100.00;95601.97;5042978;28;20573;-68
2021/08/01 04:05:40;;;;;;;38.37;10.37;;;;;;;12.90;100.00;95602.81;5042577;28;20049;-68
2021/08/01 04:08:08;;;;;;;39.63;10.83;;;;;;;12.91;100.00;95604.47;5042889;28;20524;-68
2021/08/01 04:10:34;;;;;;;42.10;9.87;;;;;;;12.95;100.00;95945.78;5043112;28;20074;-68
2021/08/01 04:13:00;;;;;;;42.10;10.33;;;;;;;13.03;100.00;96293.84;5043150;28;20025;-68
2021/08/01 04:15:26;;;;;;;41.97;11.10;;;;;;;13.08;100.00;96302.16;5042633;28;20481;-68
2021/08/01 04:17:51;;;;;;;41.93;11.47;;;;;;;13.18;100.00;96654.56;5042815;28;20164;-68
2021/08/01 04:20:16;;;;;;;41.10;10.07;;;;;;;13.27;100.00;97005.44;5042859;28;20029;-68
2021/08/01 04:22:42;;;;;;;43.17;10.70;;;;;;;13.42;100.00;97702.50;5042935;28;20033;-68
2021/08/01 04:25:09;;;;;;;49.60;10.70;;;;;;;13.42;100.00;97366.53;5042595;28;20053;-68
2021/08/01 04:27:35;;;;;;;40.23;10.87;;;;;;;13.49;100.00;97378.34;5042681;28;20071;-68
2021/08/01 04:30:00;;;;;;;33.20;9.27;;;;;;;13.40;100.00;96690.56;5042495;28;20024;-68
2021/08/01 04:32:26;;;;;;;36.47;10.20;;;;;;;13.43;100.00;96360.53;5042603;28;20032;-68
2021/08/01 04:34:51;;;;;;;41.30;10.07;;;;;;;13.46;100.00;96365.56;5042446;28;20033;-68
2021/08/01 04:37:17;;;;;;;37.97;10.37;;;;;;;13.41;100.00;95685.63;5042571;28;20025;-68
2021/08/01 04:39:42;;;;;;;33.53;10.90;;;;;;;13.47;100.00;95695.56;5042754;28;20032;-68
2021/08/01 04:42:08;;;;;;;33.13;10.87;;;;;;;13.65;100.00;97403.59;5042841;28;20021;-68
2021/08/01 04:44:33;;;;;;;35.13;10.20;;;;;;;13.77;100.00;96751.63;5042472;28;20049;-68
2021/08/01 04:46:59;;;;;;;31.87;10.00;;;;;;;13.80;100.00;95748.56;5042518;28;20035;-68
2021/08/01 04:49:24;;;;;;;30.60;9.73;;;;;;;13.73;100.00;94393.47;5042205;28;20028;-68
2021/08/01 04:51:50;;;;;;;28.63;9.67;;;;;;;13.89;100.00;94083.69;5042786;28;20048;-68
2021/08/01 04:54:15;;;;;;;26.57;10.23;;;;;;;14.09;100.00;93779.50;5042328;28;20036;-68
2021/08/01 04:56:45;;;;;;;29.90;10.00;;;;;;;14.04;100.00;91085.03;5042062;28;20040;-68
2021/08/01 04:59:11;;;;;;;25.07;10.23;;;;;;;14.24;100.00;90108.63;5042555;28;20688;-68
2021/08/01 05:01:37;;;;;;;35.73;9.77;;;;;;;14.33;100.00;85091.22;5042486;28;20028;-68
2021/08/01 05:04:02;;;;;;;26.70;9.47;;;;;;;14.53;100.00;80428.31;5042126;28;20099;-68
2021/08/01 05:06:28;;;;;;;30.33;9.80;;;;;;;14.49;100.00;73397.00;5042241;28;20037;-68
2021/08/01 05:08:53;;;;;;;24.57;9.13;;;;;;;14.55;100.00;75745.66;5042023;28;20053;-68
2021/08/01 05:11:19;;;;;;;26.20;10.13;;;;;;;14.60;100.00;77425.03;5041348;28;20078;-68
2021/08/01 05:13:44;;;;;;;25.67;10.03;;;;;;;14.67;100.00;75091.84;5042139;28;20021;-68
2021/08/01 05:16:17;;;;;;;21.73;9.40;;;;;;;14.64;100.00;72079.97;5042438;28;20071;-68
2021/08/01 05:18:43;;;;;;;21.63;9.20;;;;;;;14.47;100.00;72726.78;5041997;28;20036;-68
2021/08/01 05:21:08;;;;;;;23.80;10.33;;;;;;;14.48;100.00;79081.44;5042340;28;20511;-68
2021/08/01 05:23:34;;;;;;;25.23;9.00;;;;;;;14.45;100.00;83432.09;5041705;28;20037;-68
2021/08/01 05:26:00;;;;;;;25.37;10.70;;;;;;;14.39;100.00;84428.84;5042527;28;20029;-68
2021/08/01 05:28:25;;;;;;;26.67;10.43;;;;;;;14.40;100.00;86442.16;5041355;28;20025;-68
2021/08/01 05:30:51;;;;;;;27.07;10.37;;;;;;;14.39;100.00;87782.53;5042415;28;20167;-68
2021/08/01 05:33:16;;;;;;;25.37;9.93;;;;;;;14.38;100.00;88117.31;5041789;28;20024;-68
2021/08/01 05:35:42;;;;;;;27.03;11.10;;;;;;;14.46;100.00;88463.66;5042509;28;20029;-68
2021/08/01 05:38:07;;;;;;;34.27;11.10;;;;;;;14.72;100.00;90182.03;5041764;28;20493;-68
2021/08/01 05:40:34;;;;;;;25.20;10.60;;;;;;;14.90;100.00;89202.16;5042437;28;20116;-68
2021/08/01 05:42:59;;;;;;;23.47;9.50;;;;;;;14.92;100.00;86182.97;5041704;28;20044;-68
2021/08/01 05:45:28;;;;;;;25.77;10.13;;;;;;;14.72;100.00;81123.53;5042476;28;20405;-68
2021/08/01 05:47:54;;;;;;;20.67;9.53;;;;;;;14.62;100.00;79771.06;5044833;28;21869;-68
2021/08/01 05:50:21;;;;;;;23.43;10.83;;;;;;;14.64;100.00;82454.00;5045606;28;20025;-68
2021/08/01 05:52:46;;;;;;;21.73;9.43;;;;;;;14.60;100.00;82783.44;5045153;28;20021;-68
2021/08/01 05:55:12;;;;;;;25.47;10.27;;;;;;;14.61;100.00;82784.84;5045576;28;20035;-68
2021/08/01 05:57:38;;;;;;;24.67;9.83;;;;;;;14.60;100.00;81442.34;5044960;28;20710;-68
2021/08/01 06:00:05;;;;;;;25.17;10.97;;;;;;;14.59;100.00;82446.84;5045711;28;20017;-68
2021/08/01 06:02:30;;;;;;;23.17;10.87;;;;;;;14.57;100.00;82779.13;5044874;28;20095;-68
2021/08/01 06:04:56;;;;;;;25.50;10.23;;;;;;;14.54;100.00;83445.13;5045330;28;20041;-68
2021/08/01 06:07:21;;;;;;;28.03;10.67;;;;;;;14.59;100.00;85128.13;5045072;28;20044;-68
2021/08/01 06:09:47;;;;;;;28.87;9.60;;;;;;;14.63;100.00;85470.19;5045060;28;20020;-68
2021/08/01 06:12:13;;;;;;;27.63;10.40;;;;;;;14.67;100.00;84133.84;5045073;28;20105;-68
2021/08/01 06:14:39;;;;;;;25.50;10.43;;;;;;;14.77;100.00;84147.66;5045171;28;20088;-68
2021/08/01 06:17:05;;;;;;;25.10;10.33;;;;;;;14.85;100.00;84159.34;5045146;28;20108;-68
2021/08/01 06:19:30;;;;;;;22.30;9.50;;;;;;;14.84;100.00;81810.75;5044758;28;20456;-68
2021/08/01 06:21:56;;;;;;;27.67;9.93;;;;;;;14.80;100.00;80799.72;5044922;28;20409;-68
2021/08/01 06:24:21;;;;;;;25.07;9.80;;;;;;;14.81;100.00;81136.22;5044755;28;20474;-68
2021/08/01 06:26:47;;;;;;;24.07;10.83;;;;;;;14.91;100.00;81821.41;5044882;28;20049;-68
2021/08/01 06:29:12;;;;;;;24.10;10.13;;;;;;;14.93;100.00;79812.66;5044337;28;20116;-68
2021/08/01 06:31:38;;;;;;;22.33;9.80;;;;;;;15.03;100.00;77481.59;5044682;28;20610;-68
2021/08/01 06:34:03;;;;;;;23.43;10.00;;;;;;;15.25;100.00;76171.47;5044291;28;20033;-68
2021/08/01 06:36:29;;;;;;;23.23;10.57;;;;;;;15.58;100.00;72865.03;5044922;28;20028;-68
2021/08/01 06:38:54;;;;;;;23.37;10.07;;;;;;;15.59;100.00;52841.53;5043821;28;20032;-68
2021/08/01 06:41:20;;;;;;;21.50;9.57;;;;;;;15.87;100.00;45550.59;5044309;28;20107;-68
2021/08/01 06:43:45;;;;;;;20.70;9.07;;;;;;;15.93;100.00;19741.38;5044473;28;20037;-68
2021/08/01 06:46:11;;;;;;;24.33;10.07;;;;;;;16.18;100.00;5271.13;5044313;28;20661;-68
2021/08/01 06:48:37;;;;;;;19.13;9.40;;;;;;;16.51;100.00;-19595.28;5044434;28;20731;-68
2021/08/01 06:51:03;;;;;;;18.10;8.23;;;;;;;16.35;100.00;-19591.34;5044407;28;20036;-68
2021/08/01 06:53:29;;;;;;;18.93;9.13;;;;;;;16.37;100.00;-19591.75;5044227;28;20013;-68
2021/08/01 06:55:55;;;;;;;18.20;9.30;;;;;;;16.49;100.00;-19594.75;5044428;28;20037;-68
2021/08/01 06:58:21;;;;;;;19.73;9.63;;;;;;;16.49;100.00;-19594.75;5043934;28;20469;-68
2021/08/01 07:00:47;;;;;;;18.73;8.43;;;;;;;16.55;100.00;-19596.31;5043838;28;20029;-68
2021/08/01 07:03:13;;;;;;;17.77;7.53;;;;;;;16.45;100.00;-19593.81;5033296;28;20029;-68
2021/08/01 07:05:39;;;;;;;17.67;7.97;;;;;;;16.59;100.00;-19597.47;5044039;28;20040;-68
2021/08/01 07:08:04;;;;;;;19.50;8.73;;;;;;;16.60;100.00;-19597.75;5043941;28;20108;-68
2021/08/01 07:10:30;;;;;;;19.30;8.47;;;;;;;16.53;100.00;-19595.91;5041489;28;20028;-68
2021/08/01 07:12:55;;;;;;;20.20;8.63;;;;;;;16.67;100.00;-19599.59;5043291;28;20040;-68
2021/08/01 07:15:24;;;;;;;18.23;8.40;;;;;;;16.91;100.00;-19605.59;5043479;28;20495;-68
2021/08/01 07:17:58;;;;;;;19.43;9.43;;;;;;;16.77;100.00;-19602.06;5044002;28;20029;-68
2021/08/01 07:20:24;;;;;;;19.03;9.33;;;;;;;17.02;100.00;-19608.34;5043288;28;20060;-68
2021/08/01 07:22:50;;;;;;;20.03;8.63;;;;;;;16.95;100.00;-19606.75;5043227;28;20413;-68
2021/08/01 07:25:17;;;;;;;18.87;9.27;;;;;;;17.03;100.00;-19608.72;5043666;28;20028;-68
2021/08/01 07:27:42;;;;;;;17.20;8.67;;;;;;;17.02;100.00;-19608.47;5043879;28;20720;-68
2021/08/01 07:30:09;;;;;;;19.37;9.40;;;;;;;17.21;100.00;-19613.28;5043445;28;20120;-68
2021/08/01 07:32:34;;;;;;;22.53;9.37;;;;;;;17.29;100.00;-19615.50;5042990;28;20086;-68
2021/08/01 07:35:00;;;;;;;19.70;9.43;;;;;;;17.16;100.00;-19612.13;5043643;28;20036;-68
2021/08/01 07:37:25;;;;;;;19.33;9.37;;;;;;;17.29;100.00;-19615.50;5043579;28;20040;-68
2021/08/01 07:39:51;;;;;;;20.23;9.70;;;;;;;17.31;100.00;-19615.91;5043673;28;20024;-68
2021/08/01 07:42:16;;;;;;;16.40;9.07;;;;;;;17.34;100.00;-19616.69;5042922;28;20036;-68
2021/08/01 07:44:49;;;;;;;19.80;10.10;;;;;;;17.52;100.00;-19621.38;5043268;28;20104;-68
2021/08/01 07:47:20;;;;;;;23.03;9.83;;;;;;;18.52;100.00;-19646.94;5043192;28;20103;-68
2021/08/01 07:49:46;;;;;;;20.38;10.00;;;;;;;18.69;100.00;-19651.38;5042744;28;20025;-68
2021/08/01 07:52:12;;;;;;;18.02;9.15;;;;;;;18.53;100.00;-19647.19;5042470;28;20028;-68
2021/08/01 07:54:38;;;;;;;19.30;9.45;;;;;;;18.71;100.00;-19651.91;5042310;28;20048;-68
2021/08/01 07:57:05;;;;;;;17.50;8.82;;;;;;;19.13;100.00;-19662.56;5043150;28;20100;-68
2021/08/01 07:59:31;;;;;;;16.90;8.82;;;;;;;18.69;100.00;-19651.25;5043318;28;20025;-68
2021/08/01 08:01:56;;;;;;;20.65;9.05;;;;;;;18.95;100.00;-19658.03;5042908;28;20401;-68
2021/08/01 08:04:22;;;;;;;15.23;8.23;;;;;;;18.86;100.00;-19655.53;5043139;28;20053;-68
2021/08/01 08:06:48;;;;;;;18.77;10.20;;;;;;;19.10;100.00;-19661.78;5043297;28;20110;-68
2021/08/01 08:09:16;;;;;;;16.92;8.70;;;;;;;20.27;100.00;-19691.59;5042568;28;20032;-68
2021/08/01 08:11:42;;;;;;;19.67;8.25;;;;;;;20.32;100.00;-19693.03;5043184;28;20036;-68
2021/08/01 08:14:07;;;;;;;22.13;8.45;;;;;;;20.42;100.00;-19695.63;5043046;28;20021;-68
2021/08/01 08:16:33;;;;;;;14.77;8.43;;;;;;;20.03;100.00;-19685.47;5043253;28;20091;-68
2021/08/01 08:18:59;;;;;;;15.90;7.53;;;;;;;19.96;100.00;-19683.78;5042983;28;20047;-68
2021/08/01 08:21:26;;;;;;;14.32;7.88;;;;;;;19.92;100.00;-19682.75;5043120;28;20024;-68
2021/08/01 08:23:52;;;;;;;15.75;8.30;;;;;;;19.95;100.00;-19683.41;5042595;28;20068;-68
2021/08/01 08:26:18;;;;;;;17.70;8.55;;;;;;;20.99;100.00;-19710.06;5042983;28;20044;-68
2021/08/01 08:28:47;;;;;;;13.02;7.32;;;;;;;21.82;100.00;-19731.22;5042950;28;20028;-68
2021/08/01 08:31:12;;;;;;;13.63;6.55;;;;;;;21.39;100.00;-19720.31;5043177;28;20033;-68
2021/08/01 08:33:38;;;;;;;13.07;6.80;;;;;;;22.61;100.00;-19751.44;5042638;28;20025;-68
2021/08/01 08:36:03;;;;;;;12.82;6.68;;;;;;;22.41;100.00;-19746.25;5042949;28;20033;-68
2021/08/01 08:38:29;;;;;;;13.98;6.80;;;;;;;22.26;100.00;-19742.50;5042931;28;20025;-68
2021/08/01 08:40:55;;;;;;;13.73;6.68;;;;;;;23.10;100.00;-19763.88;5042759;28;20024;-69
2021/08/01 08:43:20;;;;;;;13.32;6.07;;;;;;;23.01;100.00;-19761.53;5042257;28;20039;-68
2021/08/01 08:45:47;;;;;;;13.07;6.82;;;;;;;23.43;100.00;-19772.16;5042832;28;20024;-68
2021/08/01 08:48:15;;;;;;;9.93;6.00;;;;;;;21.94;100.00;-19734.31;5042822;28;20032;-69
2021/08/01 08:50:41;;;;;;;10.10;5.95;;;;;;;21.50;100.00;-19723.03;5042832;28;20024;-68
2021/08/01 08:53:07;;;;;;;10.70;6.18;;;;;;;20.86;100.00;-19706.69;5042594;28;20021;-68
2021/08/01 08:55:34;;;;;;;9.95;5.93;;;;;;;21.20;100.00;-19715.38;5042532;28;20036;-68
2021/08/01 08:58:02;;;;;;;10.13;5.70;;;;;;;21.81;100.00;-19731.09;5042582;28;20033;-68
2021/08/01 09:00:28;;;;;;;10.30;6.00;;;;;;;21.67;100.00;-19727.31;5042732;28;20021;-68
2021/08/01 09:02:55;;;;;;;12.82;6.35;;;;;;;20.48;100.00;-19697.19;5042515;28;20029;-69
2021/08/01 09:05:20;;;;;;;11.88;5.93;;;;;;;20.94;100.00;-19708.75;5034505;28;20049;-68
2021/08/01 09:07:46;;;;;;;10.65;5.70;;;;;;;20.64;100.00;-19701.22;5042597;28;20111;-68
2021/08/01 09:10:11;;;;;;;13.10;6.47;;;;;;;20.48;100.00;-19697.06;5042592;28;20668;-68
2021/08/01 09:12:45;;;;;;;10.15;5.78;;;;;;;21.81;100.00;-19730.94;5042453;28;20032;-68
2021/08/01 09:15:20;;;;;;;8.63;4.90;;;;;;;22.65;100.00;-19752.47;5042431;28;20029;-68
2021/08/01 09:17:46;;;;;;;9.43;5.13;;;;;;;22.83;100.00;-19756.88;5030172;28;20108;-68
2021/08/01 09:20:48;;;;;;;10.32;5.15;;;;;;;23.89;94.77;-19784.06;5042640;28;20025;-69
2021/08/01 09:23:14;;;;;;;7.40;4.43;;;;;;;23.42;93.72;-19772.03;4945492;28;20066;-69
2021/08/01 09:25:42;;;;;;;7.95;4.40;;;;;;;23.97;92.39;-19786.13;4944189;29;20035;-69
2021/08/01 09:28:17;;;;;;;7.43;3.63;;;;;;;24.18;84.84;-19791.31;4939812;28;20039;-69
2021/08/01 09:31:00;;;;;;;6.82;3.88;;;;;;;25.35;82.75;-19821.03;4942911;28;20039;-69
2021/08/01 09:33:37;;;;;;;6.32;3.63;;;;;;;23.96;90.22;-19785.75;4943001;28;20047;-69
2021/08/01 09:36:17;;;;;;;7.30;4.25;;;;;;;22.40;96.63;-19746.00;4942679;29;20039;-69
2021/08/01 09:38:54;;;;;;;6.70;3.90;;;;;;;22.52;100.00;-19749.09;4942899;28;20537;-69
2021/08/01 09:41:39;;;;;;;10.45;4.15;;;;;;;23.45;97.36;-19772.69;4942955;29;20039;-69
2021/08/01 09:44:17;;;;;;;7.53;3.70;;;;;;;24.32;85.38;-19794.94;4942437;28;20047;-69
2021/08/01 09:46:45;;;;;;;7.70;3.80;;;;;;;22.22;99.61;-19741.59;4942317;29;20039;-69
2021/08/01 09:49:13;;;;;;;8.40;4.78;;;;;;;20.82;100.00;-19705.63;4942528;28;20405;-69
2021/08/01 09:51:52;;;;;;;7.50;4.15;;;;;;;20.61;100.00;-19700.31;4929933;29;20121;-69
2021/08/01 09:54:19;;;;;;;8.95;4.80;;;;;;;20.43;100.00;-19695.75;4942355;28;20516;-69
2021/08/01 09:56:53;;;;;;;8.50;4.43;;;;;;;20.88;100.00;-19707.31;4942325;29;20031;-69
2021/08/01 09:59:19;;;;;;;8.00;3.97;;;;;;;21.50;100.00;-19723.16;4984854;28;20056;-69
2021/08/01 10:01:57;;;;;;;8.35;4.88;;;;;;;20.85;100.00;-19706.41;5043230;28;20636;-69
2021/08/01 10:04:40;;;;;;;9.27;5.18;;;;;;;20.73;100.00;-19703.44;5042941;28;20087;-69
2021/08/01 10:07:13;;;;;;;8.23;4.22;;;;;;;20.29;100.00;-19692.25;5042883;28;20121;-69
2021/08/01 10:09:49;;;;;;;12.10;5.20;;;;;;;19.81;100.00;-19679.88;5043091;28;20064;-69
2021/08/01 10:12:15;;;;;;;9.32;4.90;;;;;;;19.50;100.00;-19671.94;5043296;28;20032;-69
2021/08/01 10:14:44;;;;;;;9.02;4.70;;;;;;;19.36;100.00;-19668.31;5043074;28;20111;-69
2021/08/01 10:17:09;;;;;;;10.75;5.07;;;;;;;20.03;100.00;-19685.47;5042651;28;20108;-69
2021/08/01 10:19:35;;;;;;;11.00;5.45;;;;;;;21.05;100.00;-19711.72;5042902;28;20108;-69
2021/08/01 10:22:04;;;;;;;12.15;5.55;;;;;;;22.59;100.00;-19750.91;5043306;28;20032;-69
2021/08/01 10:24:40;;;;;;;7.43;4.18;;;;;;;23.09;98.77;-19763.63;5042225;28;20060;-69
2021/08/01 10:27:08;;;;;;;11.82;4.78;;;;;;;21.96;100.00;-19734.72;5042128;28;20032;-69
2021/08/01 10:29:54;;;;;;;10.57;4.95;;;;;;;21.76;100.00;-19729.66;5042736;28;20821;-69
2021/08/01 10:32:21;;;;;;;10.70;4.78;;;;;;;22.45;100.00;-19747.28;5029946;28;20101;-69
2021/08/01 10:34:55;;;;;;;7.85;4.07;;;;;;;22.26;100.00;-19742.38;5040883;28;20025;-69
2021/08/01 10:37:26;;;;;;;8.07;4.15;;;;;;;21.11;100.00;-19713.03;5042109;28;20021;-69
2021/08/01 10:39:53;;;;;;;6.72;4.18;;;;;;;22.38;100.00;-19745.47;5043001;28;20032;-69
2021/08/01 10:42:23;;;;;;;7.00;4.22;;;;;;;22.86;99.29;-19757.66;5043211;28;20496;-69
2021/08/01 10:44:49;;;;;;;6.47;3.90;;;;;;;22.79;99.89;-19756.09;5042878;28;20051;-69
2021/08/01 10:47:15;;;;;;;6.15;3.50;;;;;;;22.95;92.35;-19760.00;5041727;28;20029;-69
2021/08/01 10:49:47;;;;;;;8.57;3.70;;;;;;;21.89;100.00;-19733.16;5041980;28;20040;-69
2021/08/01 10:52:16;;;;;;;8.13;3.80;;;;;;;21.05;100.00;-19711.72;5041724;28;20036;-70
2021/08/01 10:54:55;;;;;;;6.63;3.30;;;;;;;21.22;100.00;-19715.91;5041632;28;20075;-69
2021/08/01 10:57:21;;;;;;;8.95;3.28;;;;;;;21.53;100.00;-19723.81;5041862;28;20675;-69
2021/08/01 11:00:06;;;;;;;4.65;2.65;;;;;;;22.68;100.00;-19753.25;5034459;28;20370;-69
2021/08/01 11:02:34;;;;;;;4.85;2.70;;;;;;;22.78;90.04;-19755.84;5041803;28;20083;-69
2021/08/01 11:05:33;;;;;;;5.93;2.70;;;;;;;21.94;98.68;-19734.31;5041204;28;20494;-69
2021/08/01 11:08:02;;;;;;;4.57;2.72;;;;;;;21.31;100.00;-19718.22;5037173;28;20111;-69
2021/08/01 11:10:29;;;;;;;5.18;2.90;;;;;;;20.96;100.00;-19709.28;5041097;28;20035;-69
2021/08/01 11:12:54;;;;;;;5.13;3.17;;;;;;;20.76;100.00;-19704.34;5041446;28;20032;-69
2021/08/01 11:15:45;;;;;;;7.60;3.78;;;;;;;19.77;100.00;-19678.97;5041691;28;20094;-68
2021/08/01 11:18:10;;;;;;;8.70;3.58;;;;;;;18.33;100.00;-19642.13;5040256;28;20041;-68
2021/08/01 11:20:56;;;;;;;8.63;5.07;;;;;;;17.70;100.00;-19625.97;5041565;28;20124;-68